sensor_id;sensor_type;location;lat;lon;timestamp;P1;durP1;ratioP1;P2;durP2;ratioP2
7193;SDS011;3638;48.820;9.244;2024-03-22T00:00:52;14.83;;;11.80;;
7193;SDS011;3638;48.820;9.244;2024-03-22T00:03:20;13.33;;;11.83;;
7193;SDS011;3638;48.820;9.244;2024-03-22T00:05:48;14.67;;;11.83;;
7193;SDS011;3638;48.820;9.244;2024-03-22T00:08:14;15.17;;;11.73;;
7193;SDS011;3638;48.820;9.244;2024-03-22T00:10:41;18.13;;;12.27;;
7193;SDS011;3638;48.820;9.244;2024-03-22T00:13:08;16.50;;;12.30;;
7193;SDS011;3638;48.820;9.244;2024-03-22T00:15:35;15.03;;;12.37;;
7193;SDS011;3638;48.820;9.244;2024-03-22T00:18:02;13.57;;;12.10;;
7193;SDS011;3638;48.820;9.244;2024-03-22T00:20:31;16.50;;;11.93;;
7193;SDS011;3638;48.820;9.244;2024-03-22T00:22:57;13.80;;;12.27;;
7193;SDS011;3638;48.820;9.244;2024-03-22T00:25:25;13.90;;;11.93;;
7193;SDS011;3638;48.820;9.244;2024-03-22T00:27:51;14.97;;;12.07;;
7193;SDS011;3638;48.820;9.244;2024-03-22T00:30:20;14.83;;;12.67;;
7193;SDS011;3638;48.820;9.244;2024-03-22T00:32:46;15.60;;;12.67;;
7193;SDS011;3638;48.820;9.244;2024-03-22T00:35:14;14.83;;;11.03;;
7193;SDS011;3638;48.820;9.244;2024-03-22T00:37:42;15.93;;;11.53;;
7193;SDS011;3638;48.820;9.244;2024-03-22T00:40:10;13.77;;;11.87;;
7193;SDS011;3638;48.820;9.244;2024-03-22T00:42:37;16.07;;;12.00;;
7193;SDS011;3638;48.820;9.244;2024-03-22T00:45:04;14.73;;;12.10;;
7193;SDS011;3638;48.820;9.244;2024-03-22T00:47:31;15.13;;;12.17;;
7193;SDS011;3638;48.820;9.244;2024-03-22T00:49:58;14.73;;;12.30;;
7193;SDS011;3638;48.820;9.244;2024-03-22T00:52:26;14.70;;;12.07;;
7193;SDS011;3638;48.820;9.244;2024-03-22T00:54:55;13.33;;;11.67;;
7193;SDS011;3638;48.820;9.244;2024-03-22T00:57:22;15.47;;;12.27;;
7193;SDS011;3638;48.820;9.244;2024-03-22T00:59:49;17.03;;;13.40;;
7193;SDS011;3638;48.820;9.244;2024-03-22T01:02:16;15.93;;;12.67;;
7193;SDS011;3638;48.820;9.244;2024-03-22T01:04:43;19.80;;;12.77;;
7193;SDS011;3638;48.820;9.244;2024-03-22T01:07:09;14.40;;;12.40;;
7193;SDS011;3638;48.820;9.244;2024-03-22T01:09:37;17.23;;;13.17;;
7193;SDS011;3638;48.820;9.244;2024-03-22T01:12:05;15.73;;;13.37;;
7193;SDS011;3638;48.820;9.244;2024-03-22T01:14:32;17.57;;;13.77;;
7193;SDS011;3638;48.820;9.244;2024-03-22T01:16:59;16.30;;;13.40;;
7193;SDS011;3638;48.820;9.244;2024-03-22T01:19:26;16.80;;;12.90;;
7193;SDS011;3638;48.820;9.244;2024-03-22T01:21:53;15.03;;;13.40;;
7193;SDS011;3638;48.820;9.244;2024-03-22T01:24:20;15.40;;;13.13;;
7193;SDS011;3638;48.820;9.244;2024-03-22T01:26:47;16.13;;;12.80;;
7193;SDS011;3638;48.820;9.244;2024-03-22T01:29:15;15.40;;;12.57;;
7193;SDS011;3638;48.820;9.244;2024-03-22T01:31:42;17.17;;;12.60;;
7193;SDS011;3638;48.820;9.244;2024-03-22T01:34:09;18.27;;;12.40;;
7193;SDS011;3638;48.820;9.244;2024-03-22T01:36:35;14.47;;;12.37;;
7193;SDS011;3638;48.820;9.244;2024-03-22T01:39:03;13.23;;;11.80;;
7193;SDS011;3638;48.820;9.244;2024-03-22T01:41:29;13.10;;;11.70;;
7193;SDS011;3638;48.820;9.244;2024-03-22T01:43:57;13.93;;;12.33;;
7193;SDS011;3638;48.820;9.244;2024-03-22T01:46:25;14.37;;;12.37;;
7193;SDS011;3638;48.820;9.244;2024-03-22T01:48:52;13.40;;;12.00;;
7193;SDS011;3638;48.820;9.244;2024-03-22T01:51:19;15.20;;;12.53;;
7193;SDS011;3638;48.820;9.244;2024-03-22T01:53:46;17.27;;;12.40;;
7193;SDS011;3638;48.820;9.244;2024-03-22T01:56:13;16.27;;;11.80;;
7193;SDS011;3638;48.820;9.244;2024-03-22T01:58:40;13.03;;;11.70;;
7193;SDS011;3638;48.820;9.244;2024-03-22T02:01:07;14.23;;;11.30;;
7193;SDS011;3638;48.820;9.244;2024-03-22T02:03:36;12.43;;;10.97;;
7193;SDS011;3638;48.820;9.244;2024-03-22T02:06:03;12.57;;;10.43;;
7193;SDS011;3638;48.820;9.244;2024-03-22T02:08:30;11.60;;;10.40;;
7193;SDS011;3638;48.820;9.244;2024-03-22T02:10:57;15.00;;;11.33;;
7193;SDS011;3638;48.820;9.244;2024-03-22T02:13:24;15.93;;;11.43;;
7193;SDS011;3638;48.820;9.244;2024-03-22T02:15:50;12.67;;;11.17;;
7193;SDS011;3638;48.820;9.244;2024-03-22T02:18:17;13.83;;;11.20;;
7193;SDS011;3638;48.820;9.244;2024-03-22T02:20:45;14.03;;;11.33;;
7193;SDS011;3638;48.820;9.244;2024-03-22T02:23:12;13.53;;;11.37;;
7193;SDS011;3638;48.820;9.244;2024-03-22T02:25:40;13.30;;;11.90;;
7193;SDS011;3638;48.820;9.244;2024-03-22T02:28:07;13.50;;;11.83;;
7193;SDS011;3638;48.820;9.244;2024-03-22T02:30:33;14.03;;;11.10;;
7193;SDS011;3638;48.820;9.244;2024-03-22T02:33:00;12.33;;;11.03;;
7193;SDS011;3638;48.820;9.244;2024-03-22T02:35:27;14.03;;;11.70;;
7193;SDS011;3638;48.820;9.244;2024-03-22T02:37:54;13.40;;;11.97;;
7193;SDS011;3638;48.820;9.244;2024-03-22T02:40:23;14.77;;;11.17;;
7193;SDS011;3638;48.820;9.244;2024-03-22T02:42:52;18.00;;;12.63;;
7193;SDS011;3638;48.820;9.244;2024-03-22T02:45:18;14.77;;;12.63;;
7193;SDS011;3638;48.820;9.244;2024-03-22T02:47:46;14.90;;;13.07;;
7193;SDS011;3638;48.820;9.244;2024-03-22T02:50:12;15.90;;;13.23;;
7193;SDS011;3638;48.820;9.244;2024-03-22T02:52:40;14.50;;;11.80;;
7193;SDS011;3638;48.820;9.244;2024-03-22T02:55:06;14.03;;;12.20;;
7193;SDS011;3638;48.820;9.244;2024-03-22T02:57:33;13.90;;;11.43;;
7193;SDS011;3638;48.820;9.244;2024-03-22T03:00:01;12.30;;;10.80;;
7193;SDS011;3638;48.820;9.244;2024-03-22T03:02:30;12.67;;;11.37;;
7193;SDS011;3638;48.820;9.244;2024-03-22T03:04:56;16.73;;;13.43;;
7193;SDS011;3638;48.820;9.244;2024-03-22T03:07:23;17.60;;;13.87;;
7193;SDS011;3638;48.820;9.244;2024-03-22T03:09:49;19.37;;;12.60;;
7193;SDS011;3638;48.820;9.244;2024-03-22T03:12:17;17.23;;;12.80;;
7193;SDS011;3638;48.820;9.244;2024-03-22T03:14:43;15.13;;;11.90;;
7193;SDS011;3638;48.820;9.244;2024-03-22T03:17:11;13.70;;;12.03;;
7193;SDS011;3638;48.820;9.244;2024-03-22T03:19:38;14.63;;;12.60;;
7193;SDS011;3638;48.820;9.244;2024-03-22T03:22:05;14.60;;;12.17;;
7193;SDS011;3638;48.820;9.244;2024-03-22T03:24:31;16.47;;;13.03;;
7193;SDS011;3638;48.820;9.244;2024-03-22T03:26:58;17.57;;;12.60;;
7193;SDS011;3638;48.820;9.244;2024-03-22T03:29:24;17.97;;;14.97;;
7193;SDS011;3638;48.820;9.244;2024-03-22T03:31:52;16.87;;;14.13;;
7193;SDS011;3638;48.820;9.244;2024-03-22T03:34:20;17.10;;;14.90;;
7193;SDS011;3638;48.820;9.244;2024-03-22T03:36:47;20.30;;;16.67;;
7193;SDS011;3638;48.820;9.244;2024-03-22T03:39:14;25.30;;;18.70;;
7193;SDS011;3638;48.820;9.244;2024-03-22T03:41:41;23.33;;;18.53;;
7193;SDS011;3638;48.820;9.244;2024-03-22T03:44:07;24.23;;;19.97;;
7193;SDS011;3638;48.820;9.244;2024-03-22T03:46:35;22.87;;;19.80;;
7193;SDS011;3638;48.820;9.244;2024-03-22T03:49:01;24.50;;;19.57;;
7193;SDS011;3638;48.820;9.244;2024-03-22T03:51:29;23.83;;;18.70;;
7193;SDS011;3638;48.820;9.244;2024-03-22T03:53:56;23.50;;;18.30;;
7193;SDS011;3638;48.820;9.244;2024-03-22T03:56:23;22.77;;;19.23;;
7193;SDS011;3638;48.820;9.244;2024-03-22T03:58:49;20.50;;;17.53;;
7193;SDS011;3638;48.820;9.244;2024-03-22T04:01:16;21.20;;;17.17;;
7193;SDS011;3638;48.820;9.244;2024-03-22T04:03:43;23.57;;;17.33;;
7193;SDS011;3638;48.820;9.244;2024-03-22T04:06:10;22.47;;;16.27;;
7193;SDS011;3638;48.820;9.244;2024-03-22T04:08:37;19.30;;;16.03;;
7193;SDS011;3638;48.820;9.244;2024-03-22T04:11:05;18.43;;;14.70;;
7193;SDS011;3638;48.820;9.244;2024-03-22T04:13:31;17.93;;;16.03;;
7193;SDS011;3638;48.820;9.244;2024-03-22T04:15:58;20.27;;;14.87;;
7193;SDS011;3638;48.820;9.244;2024-03-22T04:18:25;21.43;;;16.07;;
7193;SDS011;3638;48.820;9.244;2024-03-22T04:20:55;21.17;;;15.90;;
7193;SDS011;3638;48.820;9.244;2024-03-22T04:23:22;18.17;;;14.83;;
7193;SDS011;3638;48.820;9.244;2024-03-22T04:25:55;17.03;;;15.23;;
7193;SDS011;3638;48.820;9.244;2024-03-22T04:28:23;19.93;;;15.07;;
7193;SDS011;3638;48.820;9.244;2024-03-22T04:30:54;17.63;;;14.70;;
7193;SDS011;3638;48.820;9.244;2024-03-22T04:33:21;19.10;;;15.03;;
7193;SDS011;3638;48.820;9.244;2024-03-22T04:35:48;19.20;;;14.43;;
7193;SDS011;3638;48.820;9.244;2024-03-22T04:38:14;19.17;;;15.60;;
7193;SDS011;3638;48.820;9.244;2024-03-22T04:40:42;21.80;;;16.57;;
7193;SDS011;3638;48.820;9.244;2024-03-22T04:43:10;19.07;;;15.97;;
7193;SDS011;3638;48.820;9.244;2024-03-22T04:45:37;18.97;;;16.67;;
7193;SDS011;3638;48.820;9.244;2024-03-22T04:48:04;17.63;;;15.50;;
7193;SDS011;3638;48.820;9.244;2024-03-22T04:50:31;20.80;;;16.07;;
7193;SDS011;3638;48.820;9.244;2024-03-22T04:52:58;20.10;;;16.30;;
7193;SDS011;3638;48.820;9.244;2024-03-22T04:55:24;19.20;;;15.60;;
7193;SDS011;3638;48.820;9.244;2024-03-22T04:57:51;19.33;;;15.60;;
7193;SDS011;3638;48.820;9.244;2024-03-22T05:00:19;18.50;;;16.13;;
7193;SDS011;3638;48.820;9.244;2024-03-22T05:02:46;17.13;;;14.77;;
7193;SDS011;3638;48.820;9.244;2024-03-22T05:05:13;19.37;;;15.33;;
7193;SDS011;3638;48.820;9.244;2024-03-22T05:07:40;20.57;;;15.67;;
7193;SDS011;3638;48.820;9.244;2024-03-22T05:10:06;19.23;;;15.10;;
7193;SDS011;3638;48.820;9.244;2024-03-22T05:12:34;16.43;;;13.87;;
7193;SDS011;3638;48.820;9.244;2024-03-22T05:15:01;18.90;;;14.63;;
7193;SDS011;3638;48.820;9.244;2024-03-22T05:17:30;17.90;;;14.53;;
7193;SDS011;3638;48.820;9.244;2024-03-22T05:19:57;17.53;;;14.40;;
7193;SDS011;3638;48.820;9.244;2024-03-22T05:22:24;19.43;;;14.60;;
7193;SDS011;3638;48.820;9.244;2024-03-22T05:24:50;18.67;;;15.10;;
7193;SDS011;3638;48.820;9.244;2024-03-22T05:27:17;15.80;;;13.73;;
7193;SDS011;3638;48.820;9.244;2024-03-22T05:29:43;18.47;;;14.63;;
7193;SDS011;3638;48.820;9.244;2024-03-22T05:32:11;18.40;;;14.40;;
7193;SDS011;3638;48.820;9.244;2024-03-22T05:34:38;17.87;;;13.90;;
7193;SDS011;3638;48.820;9.244;2024-03-22T05:37:05;17.80;;;13.93;;
7193;SDS011;3638;48.820;9.244;2024-03-22T05:39:34;16.00;;;14.07;;
7193;SDS011;3638;48.820;9.244;2024-03-22T05:42:01;16.93;;;13.50;;
7193;SDS011;3638;48.820;9.244;2024-03-22T05:44:27;14.73;;;12.63;;
7193;SDS011;3638;48.820;9.244;2024-03-22T05:46:54;17.07;;;12.33;;
7193;SDS011;3638;48.820;9.244;2024-03-22T05:49:21;15.40;;;12.20;;
7193;SDS011;3638;48.820;9.244;2024-03-22T05:51:49;14.03;;;10.97;;
7193;SDS011;3638;48.820;9.244;2024-03-22T05:54:15;17.87;;;11.67;;
7193;SDS011;3638;48.820;9.244;2024-03-22T05:56:43;16.27;;;10.40;;
7193;SDS011;3638;48.820;9.244;2024-03-22T05:59:10;12.97;;;10.77;;
7193;SDS011;3638;48.820;9.244;2024-03-22T06:01:36;18.10;;;11.47;;
7193;SDS011;3638;48.820;9.244;2024-03-22T06:04:04;13.90;;;11.20;;
7193;SDS011;3638;48.820;9.244;2024-03-22T06:06:31;14.67;;;10.17;;
7193;SDS011;3638;48.820;9.244;2024-03-22T06:09:00;14.27;;;10.80;;
7193;SDS011;3638;48.820;9.244;2024-03-22T06:11:29;13.13;;;10.23;;
7193;SDS011;3638;48.820;9.244;2024-03-22T06:13:56;16.83;;;11.30;;
7193;SDS011;3638;48.820;9.244;2024-03-22T06:16:22;13.70;;;10.87;;
7193;SDS011;3638;48.820;9.244;2024-03-22T06:18:49;13.77;;;11.13;;
7193;SDS011;3638;48.820;9.244;2024-03-22T06:21:16;16.63;;;11.10;;
7193;SDS011;3638;48.820;9.244;2024-03-22T06:23:47;21.70;;;11.60;;
7193;SDS011;3638;48.820;9.244;2024-03-22T06:26:15;20.13;;;11.37;;
7193;SDS011;3638;48.820;9.244;2024-03-22T06:28:42;16.63;;;10.60;;
7193;SDS011;3638;48.820;9.244;2024-03-22T06:31:08;14.87;;;10.40;;
7193;SDS011;3638;48.820;9.244;2024-03-22T06:33:36;12.33;;;10.30;;
7193;SDS011;3638;48.820;9.244;2024-03-22T06:36:02;14.47;;;11.17;;
7193;SDS011;3638;48.820;9.244;2024-03-22T06:38:30;16.93;;;10.77;;
7193;SDS011;3638;48.820;9.244;2024-03-22T06:40:56;15.03;;;10.87;;
7193;SDS011;3638;48.820;9.244;2024-03-22T06:43:25;14.27;;;10.00;;
7193;SDS011;3638;48.820;9.244;2024-03-22T06:45:51;14.87;;;9.77;;
7193;SDS011;3638;48.820;9.244;2024-03-22T06:48:18;15.40;;;9.57;;
7193;SDS011;3638;48.820;9.244;2024-03-22T06:50:45;13.57;;;9.67;;
7193;SDS011;3638;48.820;9.244;2024-03-22T06:53:12;11.60;;;8.97;;
7193;SDS011;3638;48.820;9.244;2024-03-22T06:55:38;10.87;;;9.23;;
7193;SDS011;3638;48.820;9.244;2024-03-22T06:58:06;15.70;;;10.23;;
7193;SDS011;3638;48.820;9.244;2024-03-22T07:00:33;15.17;;;11.63;;
7193;SDS011;3638;48.820;9.244;2024-03-22T07:03:01;14.07;;;9.67;;
7193;SDS011;3638;48.820;9.244;2024-03-22T07:05:27;13.10;;;9.67;;
7193;SDS011;3638;48.820;9.244;2024-03-22T07:07:55;16.07;;;9.83;;
7193;SDS011;3638;48.820;9.244;2024-03-22T07:10:22;13.13;;;10.07;;
7193;SDS011;3638;48.820;9.244;2024-03-22T07:12:52;10.83;;;9.07;;
7193;SDS011;3638;48.820;9.244;2024-03-22T07:15:19;11.23;;;9.23;;
7193;SDS011;3638;48.820;9.244;2024-03-22T07:17:48;13.73;;;9.77;;
7193;SDS011;3638;48.820;9.244;2024-03-22T07:20:15;12.20;;;10.90;;
7193;SDS011;3638;48.820;9.244;2024-03-22T07:22:42;12.50;;;9.30;;
7193;SDS011;3638;48.820;9.244;2024-03-22T07:25:08;11.67;;;10.47;;
7193;SDS011;3638;48.820;9.244;2024-03-22T07:27:35;12.13;;;10.47;;
7193;SDS011;3638;48.820;9.244;2024-03-22T07:30:02;14.93;;;10.20;;
7193;SDS011;3638;48.820;9.244;2024-03-22T07:32:30;12.03;;;10.33;;
7193;SDS011;3638;48.820;9.244;2024-03-22T07:34:58;13.73;;;9.82;;
7193;SDS011;3638;48.820;9.244;2024-03-22T07:37:25;11.23;;;9.60;;
7193;SDS011;3638;48.820;9.244;2024-03-22T07:39:51;11.68;;;9.65;;
7193;SDS011;3638;48.820;9.244;2024-03-22T07:42:18;12.45;;;9.18;;
7193;SDS011;3638;48.820;9.244;2024-03-22T07:44:46;11.40;;;8.63;;
7193;SDS011;3638;48.820;9.244;2024-03-22T07:47:13;11.43;;;9.23;;
7193;SDS011;3638;48.820;9.244;2024-03-22T07:49:39;12.65;;;9.73;;
7193;SDS011;3638;48.820;9.244;2024-03-22T07:52:08;11.37;;;9.10;;
7193;SDS011;3638;48.820;9.244;2024-03-22T07:54:34;11.25;;;9.30;;
7193;SDS011;3638;48.820;9.244;2024-03-22T07:57:01;10.25;;;8.63;;
7193;SDS011;3638;48.820;9.244;2024-03-22T07:59:28;9.45;;;8.13;;
7193;SDS011;3638;48.820;9.244;2024-03-22T08:01:56;10.90;;;8.90;;
7193;SDS011;3638;48.820;9.244;2024-03-22T08:04:23;10.30;;;8.27;;
7193;SDS011;3638;48.820;9.244;2024-03-22T08:06:50;9.70;;;8.15;;
7193;SDS011;3638;48.820;9.244;2024-03-22T08:09:18;11.65;;;9.30;;
7193;SDS011;3638;48.820;9.244;2024-03-22T08:11:45;10.52;;;8.63;;
7193;SDS011;3638;48.820;9.244;2024-03-22T08:14:12;10.70;;;8.05;;
7193;SDS011;3638;48.820;9.244;2024-03-22T08:16:41;13.55;;;8.50;;
7193;SDS011;3638;48.820;9.244;2024-03-22T08:19:08;10.45;;;7.93;;
7193;SDS011;3638;48.820;9.244;2024-03-22T08:21:35;17.13;;;8.75;;
7193;SDS011;3638;48.820;9.244;2024-03-22T08:24:01;13.65;;;9.07;;
7193;SDS011;3638;48.820;9.244;2024-03-22T08:26:30;10.40;;;8.25;;
7193;SDS011;3638;48.820;9.244;2024-03-22T08:28:56;16.10;;;8.30;;
7193;SDS011;3638;48.820;9.244;2024-03-22T08:31:24;11.18;;;8.57;;
7193;SDS011;3638;48.820;9.244;2024-03-22T08:33:53;10.85;;;8.93;;
7193;SDS011;3638;48.820;9.244;2024-03-22T08:36:21;12.25;;;8.35;;
7193;SDS011;3638;48.820;9.244;2024-03-22T08:38:48;11.88;;;8.18;;
7193;SDS011;3638;48.820;9.244;2024-03-22T08:41:15;10.13;;;8.50;;
7193;SDS011;3638;48.820;9.244;2024-03-22T08:43:43;10.63;;;7.75;;
7193;SDS011;3638;48.820;9.244;2024-03-22T08:46:11;12.45;;;8.65;;
7193;SDS011;3638;48.820;9.244;2024-03-22T08:48:37;12.27;;;8.43;;
7193;SDS011;3638;48.820;9.244;2024-03-22T08:51:04;11.82;;;7.50;;
7193;SDS011;3638;48.820;9.244;2024-03-22T08:53:31;11.65;;;7.78;;
7193;SDS011;3638;48.820;9.244;2024-03-22T08:55:58;10.65;;;7.95;;
7193;SDS011;3638;48.820;9.244;2024-03-22T08:58:24;9.02;;;6.95;;
7193;SDS011;3638;48.820;9.244;2024-03-22T09:00:53;12.65;;;8.02;;
7193;SDS011;3638;48.820;9.244;2024-03-22T09:03:20;8.27;;;7.20;;
7193;SDS011;3638;48.820;9.244;2024-03-22T09:05:47;9.75;;;8.05;;
7193;SDS011;3638;48.820;9.244;2024-03-22T09:08:14;10.45;;;8.02;;
7193;SDS011;3638;48.820;9.244;2024-03-22T09:10:41;11.25;;;8.18;;
7193;SDS011;3638;48.820;9.244;2024-03-22T09:13:07;10.60;;;7.95;;
7193;SDS011;3638;48.820;9.244;2024-03-22T09:15:37;9.82;;;7.88;;
7193;SDS011;3638;48.820;9.244;2024-03-22T09:18:05;11.23;;;7.45;;
7193;SDS011;3638;48.820;9.244;2024-03-22T09:20:32;8.88;;;7.63;;
7193;SDS011;3638;48.820;9.244;2024-03-22T09:23:00;11.82;;;7.28;;
7193;SDS011;3638;48.820;9.244;2024-03-22T09:25:26;9.27;;;7.03;;
7193;SDS011;3638;48.820;9.244;2024-03-22T09:27:54;10.02;;;7.78;;
7193;SDS011;3638;48.820;9.244;2024-03-22T09:30:20;11.60;;;7.10;;
7193;SDS011;3638;48.820;9.244;2024-03-22T09:32:48;10.63;;;7.40;;
7193;SDS011;3638;48.820;9.244;2024-03-22T09:35:15;9.52;;;7.35;;
7193;SDS011;3638;48.820;9.244;2024-03-22T09:37:42;8.70;;;7.13;;
7193;SDS011;3638;48.820;9.244;2024-03-22T09:40:09;11.93;;;8.25;;
7193;SDS011;3638;48.820;9.244;2024-03-22T09:42:37;9.18;;;7.55;;
7193;SDS011;3638;48.820;9.244;2024-03-22T09:45:04;9.93;;;7.20;;
7193;SDS011;3638;48.820;9.244;2024-03-22T09:47:35;10.52;;;7.75;;
7193;SDS011;3638;48.820;9.244;2024-03-22T09:50:02;8.10;;;7.10;;
7193;SDS011;3638;48.820;9.244;2024-03-22T09:52:32;8.65;;;7.15;;
7193;SDS011;3638;48.820;9.244;2024-03-22T09:54:59;11.27;;;7.97;;
7193;SDS011;3638;48.820;9.244;2024-03-22T09:57:28;10.93;;;7.90;;
7193;SDS011;3638;48.820;9.244;2024-03-22T09:59:55;12.35;;;7.82;;
7193;SDS011;3638;48.820;9.244;2024-03-22T10:02:23;9.07;;;6.93;;
7193;SDS011;3638;48.820;9.244;2024-03-22T10:04:51;10.00;;;7.75;;
7193;SDS011;3638;48.820;9.244;2024-03-22T10:07:18;8.43;;;7.53;;
7193;SDS011;3638;48.820;9.244;2024-03-22T10:09:46;9.20;;;7.15;;
7193;SDS011;3638;48.820;9.244;2024-03-22T10:12:13;10.95;;;7.30;;
7193;SDS011;3638;48.820;9.244;2024-03-22T10:14:42;7.72;;;5.85;;
7193;SDS011;3638;48.820;9.244;2024-03-22T10:17:10;8.93;;;6.80;;
7193;SDS011;3638;48.820;9.244;2024-03-22T10:19:36;10.30;;;6.72;;
7193;SDS011;3638;48.820;9.244;2024-03-22T10:22:05;9.32;;;6.82;;
7193;SDS011;3638;48.820;9.244;2024-03-22T10:24:32;8.40;;;5.95;;
7193;SDS011;3638;48.820;9.244;2024-03-22T10:27:00;9.05;;;7.03;;
7193;SDS011;3638;48.820;9.244;2024-03-22T10:29:27;12.38;;;7.18;;
7193;SDS011;3638;48.820;9.244;2024-03-22T10:31:54;7.95;;;6.53;;
7193;SDS011;3638;48.820;9.244;2024-03-22T10:34:21;7.93;;;7.10;;
7193;SDS011;3638;48.820;9.244;2024-03-22T10:36:49;10.60;;;7.03;;
7193;SDS011;3638;48.820;9.244;2024-03-22T10:39:16;10.00;;;7.43;;
7193;SDS011;3638;48.820;9.244;2024-03-22T10:41:44;11.15;;;7.55;;
7193;SDS011;3638;48.820;9.244;2024-03-22T10:44:12;10.52;;;7.78;;
7193;SDS011;3638;48.820;9.244;2024-03-22T10:46:42;9.27;;;7.15;;
7193;SDS011;3638;48.820;9.244;2024-03-22T10:49:11;8.70;;;6.70;;
7193;SDS011;3638;48.820;9.244;2024-03-22T10:51:42;9.57;;;6.85;;
7193;SDS011;3638;48.820;9.244;2024-03-22T10:54:11;9.40;;;7.05;;
7193;SDS011;3638;48.820;9.244;2024-03-22T10:56:41;7.70;;;6.85;;
7193;SDS011;3638;48.820;9.244;2024-03-22T10:59:08;10.93;;;6.97;;
7193;SDS011;3638;48.820;9.244;2024-03-22T11:01:37;8.60;;;6.47;;
7193;SDS011;3638;48.820;9.244;2024-03-22T11:04:03;12.70;;;7.57;;
7193;SDS011;3638;48.820;9.244;2024-03-22T11:06:31;8.32;;;6.32;;
7193;SDS011;3638;48.820;9.244;2024-03-22T11:08:58;9.00;;;5.82;;
7193;SDS011;3638;48.820;9.244;2024-03-22T11:11:28;7.25;;;5.47;;
7193;SDS011;3638;48.820;9.244;2024-03-22T11:13:54;7.82;;;6.50;;
7193;SDS011;3638;48.820;9.244;2024-03-22T11:16:22;9.93;;;6.85;;
7193;SDS011;3638;48.820;9.244;2024-03-22T11:18:50;10.55;;;7.32;;
7193;SDS011;3638;48.820;9.244;2024-03-22T11:21:17;8.52;;;6.75;;
7193;SDS011;3638;48.820;9.244;2024-03-22T11:23:44;8.13;;;6.05;;
7193;SDS011;3638;48.820;9.244;2024-03-22T11:26:12;7.57;;;6.40;;
7193;SDS011;3638;48.820;9.244;2024-03-22T11:28:38;7.45;;;5.43;;
7193;SDS011;3638;48.820;9.244;2024-03-22T11:31:05;6.53;;;5.22;;
7193;SDS011;3638;48.820;9.244;2024-03-22T11:33:32;6.43;;;5.20;;
7193;SDS011;3638;48.820;9.244;2024-03-22T11:36:00;7.55;;;6.13;;
7193;SDS011;3638;48.820;9.244;2024-03-22T11:38:27;10.93;;;6.00;;
7193;SDS011;3638;48.820;9.244;2024-03-22T11:40:55;7.72;;;5.65;;
7193;SDS011;3638;48.820;9.244;2024-03-22T11:43:24;8.73;;;6.05;;
7193;SDS011;3638;48.820;9.244;2024-03-22T11:45:53;8.15;;;6.10;;
7193;SDS011;3638;48.820;9.244;2024-03-22T11:48:19;6.47;;;5.53;;
7193;SDS011;3638;48.820;9.244;2024-03-22T11:50:46;7.05;;;5.57;;
7193;SDS011;3638;48.820;9.244;2024-03-22T11:53:15;7.45;;;4.70;;
7193;SDS011;3638;48.820;9.244;2024-03-22T11:55:43;9.18;;;4.90;;
7193;SDS011;3638;48.820;9.244;2024-03-22T11:58:09;8.77;;;4.95;;
7193;SDS011;3638;48.820;9.244;2024-03-22T12:00:36;6.18;;;4.30;;
7193;SDS011;3638;48.820;9.244;2024-03-22T12:03:03;7.30;;;5.82;;
7193;SDS011;3638;48.820;9.244;2024-03-22T12:05:32;6.72;;;4.90;;
7193;SDS011;3638;48.820;9.244;2024-03-22T12:07:58;4.88;;;3.88;;
7193;SDS011;3638;48.820;9.244;2024-03-22T12:10:27;5.20;;;3.88;;
7193;SDS011;3638;48.820;9.244;2024-03-22T12:12:53;6.20;;;4.30;;
7193;SDS011;3638;48.820;9.244;2024-03-22T12:15:21;7.65;;;4.15;;
7193;SDS011;3638;48.820;9.244;2024-03-22T12:17:47;5.50;;;3.85;;
7193;SDS011;3638;48.820;9.244;2024-03-22T12:20:14;5.45;;;3.40;;
7193;SDS011;3638;48.820;9.244;2024-03-22T12:22:41;4.20;;;3.80;;
7193;SDS011;3638;48.820;9.244;2024-03-22T12:25:08;6.25;;;3.72;;
7193;SDS011;3638;48.820;9.244;2024-03-22T12:27:38;6.47;;;4.05;;
7193;SDS011;3638;48.820;9.244;2024-03-22T12:30:05;3.97;;;3.38;;
7193;SDS011;3638;48.820;9.244;2024-03-22T12:32:33;5.32;;;3.65;;
7193;SDS011;3638;48.820;9.244;2024-03-22T12:35:00;5.20;;;3.30;;
7193;SDS011;3638;48.820;9.244;2024-03-22T12:37:27;5.90;;;3.80;;
7193;SDS011;3638;48.820;9.244;2024-03-22T12:39:54;6.85;;;4.63;;
7193;SDS011;3638;48.820;9.244;2024-03-22T12:42:20;8.70;;;4.60;;
7193;SDS011;3638;48.820;9.244;2024-03-22T12:44:49;6.63;;;5.07;;
7193;SDS011;3638;48.820;9.244;2024-03-22T12:47:15;6.20;;;4.38;;
7193;SDS011;3638;48.820;9.244;2024-03-22T12:49:43;8.80;;;4.80;;
7193;SDS011;3638;48.820;9.244;2024-03-22T12:52:09;8.15;;;4.85;;
7193;SDS011;3638;48.820;9.244;2024-03-22T12:54:37;7.40;;;4.80;;
7193;SDS011;3638;48.820;9.244;2024-03-22T12:57:03;6.90;;;4.75;;
7193;SDS011;3638;48.820;9.244;2024-03-22T12:59:30;7.65;;;5.45;;
7193;SDS011;3638;48.820;9.244;2024-03-22T13:01:58;6.68;;;4.50;;
7193;SDS011;3638;48.820;9.244;2024-03-22T13:04:28;5.95;;;4.53;;
7193;SDS011;3638;48.820;9.244;2024-03-22T13:06:54;12.27;;;6.28;;
7193;SDS011;3638;48.820;9.244;2024-03-22T13:09:21;5.68;;;4.47;;
7193;SDS011;3638;48.820;9.244;2024-03-22T13:11:48;5.82;;;4.43;;
7193;SDS011;3638;48.820;9.244;2024-03-22T13:14:15;4.53;;;4.13;;
7193;SDS011;3638;48.820;9.244;2024-03-22T13:16:41;7.55;;;4.30;;
7193;SDS011;3638;48.820;9.244;2024-03-22T13:19:10;5.95;;;4.28;;
7193;SDS011;3638;48.820;9.244;2024-03-22T13:21:38;5.63;;;3.78;;
7193;SDS011;3638;48.820;9.244;2024-03-22T13:24:05;6.85;;;3.92;;
7193;SDS011;3638;48.820;9.244;2024-03-22T13:26:32;6.22;;;4.10;;
7193;SDS011;3638;48.820;9.244;2024-03-22T13:28:59;6.35;;;4.30;;
7193;SDS011;3638;48.820;9.244;2024-03-22T13:31:26;7.43;;;4.22;;
7193;SDS011;3638;48.820;9.244;2024-03-22T13:33:53;4.47;;;3.40;;
7193;SDS011;3638;48.820;9.244;2024-03-22T13:36:21;6.85;;;3.97;;
7193;SDS011;3638;48.820;9.244;2024-03-22T13:38:50;5.80;;;4.00;;
7193;SDS011;3638;48.820;9.244;2024-03-22T13:41:16;8.60;;;3.88;;
7193;SDS011;3638;48.820;9.244;2024-03-22T13:43:44;5.53;;;4.18;;
7193;SDS011;3638;48.820;9.244;2024-03-22T13:46:10;8.07;;;4.45;;
7193;SDS011;3638;48.820;9.244;2024-03-22T13:48:40;4.88;;;3.75;;
7193;SDS011;3638;48.820;9.244;2024-03-22T13:51:06;5.85;;;3.35;;
7193;SDS011;3638;48.820;9.244;2024-03-22T13:53:35;9.00;;;3.63;;
7193;SDS011;3638;48.820;9.244;2024-03-22T13:56:02;5.90;;;4.20;;
7193;SDS011;3638;48.820;9.244;2024-03-22T13:58:29;5.00;;;3.72;;
7193;SDS011;3638;48.820;9.244;2024-03-22T14:00:56;8.32;;;4.25;;
7193;SDS011;3638;48.820;9.244;2024-03-22T14:03:23;7.70;;;4.28;;
7193;SDS011;3638;48.820;9.244;2024-03-22T14:05:49;4.88;;;3.85;;
7193;SDS011;3638;48.820;9.244;2024-03-22T14:08:17;10.70;;;3.80;;
7193;SDS011;3638;48.820;9.244;2024-03-22T14:10:44;5.25;;;3.70;;
7193;SDS011;3638;48.820;9.244;2024-03-22T14:13:12;5.38;;;3.90;;
7193;SDS011;3638;48.820;9.244;2024-03-22T14:15:38;6.07;;;3.95;;
7193;SDS011;3638;48.820;9.244;2024-03-22T14:18:05;8.00;;;4.28;;
7193;SDS011;3638;48.820;9.244;2024-03-22T14:20:31;5.93;;;3.38;;
7193;SDS011;3638;48.820;9.244;2024-03-22T14:22:58;6.03;;;4.10;;
7193;SDS011;3638;48.820;9.244;2024-03-22T14:25:25;8.05;;;4.20;;
7193;SDS011;3638;48.820;9.244;2024-03-22T14:27:54;7.38;;;4.35;;
7193;SDS011;3638;48.820;9.244;2024-03-22T14:30:21;6.22;;;4.38;;
7193;SDS011;3638;48.820;9.244;2024-03-22T14:32:50;6.70;;;4.30;;
7193;SDS011;3638;48.820;9.244;2024-03-22T14:35:17;6.07;;;4.05;;
7193;SDS011;3638;48.820;9.244;2024-03-22T14:37:46;5.43;;;4.90;;
7193;SDS011;3638;48.820;9.244;2024-03-22T14:40:12;7.38;;;4.40;;
7193;SDS011;3638;48.820;9.244;2024-03-22T14:42:40;3.97;;;3.00;;
7193;SDS011;3638;48.820;9.244;2024-03-22T14:45:09;4.53;;;2.90;;
7193;SDS011;3638;48.820;9.244;2024-03-22T14:47:36;3.08;;;2.35;;
7193;SDS011;3638;48.820;9.244;2024-03-22T14:50:04;5.05;;;2.75;;
7193;SDS011;3638;48.820;9.244;2024-03-22T14:52:32;3.20;;;2.22;;
7193;SDS011;3638;48.820;9.244;2024-03-22T14:54:59;4.57;;;2.53;;
7193;SDS011;3638;48.820;9.244;2024-03-22T14:57:28;3.88;;;2.30;;
7193;SDS011;3638;48.820;9.244;2024-03-22T14:59:56;2.67;;;2.30;;